Bandirma, Turkey
Current Conditions -  °F | °C
As of 5:50 AM on Tuesday 27 Jan 2015 (Local Time) from LTBF Reporting Station
Moderate Fog Moderate Fog  
Wind Chill: 43°   Ceiling: Unl
Heat Index: 43°   Visibility: 0.31mi
Dew Point: 41°   Wind: 3mph
Humidity: 93%   Direction: 30°NNE
Pressure: 30.03"   Gusts: NA
Location:  40.37°N, 27.98°E
Report Text: LTBF 270250Z 03003KT 0500 R36////// R18/0500D FG NSC 06/05 Q1017 NOSIG
Loading
Personal Weather Stations






























Interactive Weather Map New forecast layout! Learn more

10-Day Weather Forecast

Advertisements
Track Severe Weather on mobile